sensor_id;sensor_type;location;lat;lon;timestamp;pressure;altitude;pressure_sealevel;temperature;humidity
37778;BME280;23615;51.506;7.678;2022-12-29T00:01:15;98766.00;;;9.64;100.00
37778;BME280;23615;51.506;7.678;2022-12-29T00:03:41;98764.19;;;9.69;100.00
37778;BME280;23615;51.506;7.678;2022-12-29T00:06:06;98752.81;;;9.74;100.00
37778;BME280;23615;51.506;7.678;2022-12-29T00:08:31;98754.34;;;9.70;100.00
37778;BME280;23615;51.506;7.678;2022-12-29T00:11:11;98744.81;;;9.74;100.00
37778;BME280;23615;51.506;7.678;2022-12-29T00:13:37;98750.84;;;9.64;100.00
37778;BME280;23615;51.506;7.678;2022-12-29T00:16:21;98753.06;;;9.72;100.00
37778;BME280;23615;51.506;7.678;2022-12-29T00:18:47;98759.13;;;9.68;100.00
37778;BME280;23615;51.506;7.678;2022-12-29T00:21:17;98747.66;;;9.89;100.00
37778;BME280;23615;51.506;7.678;2022-12-29T00:24:02;98746.88;;;9.94;100.00
37778;BME280;23615;51.506;7.678;2022-12-29T00:26:40;98740.50;;;9.95;100.00
37778;BME280;23615;51.506;7.678;2022-12-29T00:29:23;98720.06;;;10.00;100.00
37778;BME280;23615;51.506;7.678;2022-12-29T00:32:09;98720.81;;;9.96;100.00
37778;BME280;23615;51.506;7.678;2022-12-29T00:34:53;98722.97;;;9.99;100.00
37778;BME280;23615;51.506;7.678;2022-12-29T00:37:48;98711.38;;;10.10;100.00
37778;BME280;23615;51.506;7.678;2022-12-29T00:40:32;98708.63;;;10.05;100.00
37778;BME280;23615;51.506;7.678;2022-12-29T00:43:16;98702.16;;;9.96;100.00
37778;BME280;23615;51.506;7.678;2022-12-29T00:46:00;98701.53;;;10.16;100.00
37778;BME280;23615;51.506;7.678;2022-12-29T00:48:25;98700.47;;;10.17;100.00
37778;BME280;23615;51.506;7.678;2022-12-29T00:51:08;98700.56;;;10.22;100.00
37778;BME280;23615;51.506;7.678;2022-12-29T00:53:34;98708.88;;;10.30;100.00
37778;BME280;23615;51.506;7.678;2022-12-29T00:56:00;98705.72;;;10.33;100.00
37778;BME280;23615;51.506;7.678;2022-12-29T00:58:29;98711.16;;;10.17;100.00
37778;BME280;23615;51.506;7.678;2022-12-29T01:01:05;98702.13;;;10.18;100.00
37778;BME280;23615;51.506;7.678;2022-12-29T01:03:30;98702.50;;;10.31;100.00
37778;BME280;23615;51.506;7.678;2022-12-29T01:06:00;98697.69;;;10.28;100.00
37778;BME280;23615;51.506;7.678;2022-12-29T01:08:27;98704.28;;;10.21;100.00
37778;BME280;23615;51.506;7.678;2022-12-29T01:11:05;98697.94;;;10.27;100.00
37778;BME280;23615;51.506;7.678;2022-12-29T01:13:31;98692.63;;;10.32;100.00
37778;BME280;23615;51.506;7.678;2022-12-29T01:15:57;98689.50;;;10.40;100.00
37778;BME280;23615;51.506;7.678;2022-12-29T01:18:23;98691.19;;;10.51;100.00
37778;BME280;23615;51.506;7.678;2022-12-29T01:20:49;98681.50;;;10.40;100.00
37778;BME280;23615;51.506;7.678;2022-12-29T01:23:15;98684.09;;;10.30;100.00
37778;BME280;23615;51.506;7.678;2022-12-29T01:25:40;98687.09;;;10.11;100.00
37778;BME280;23615;51.506;7.678;2022-12-29T01:28:06;98684.41;;;10.33;100.00
37778;BME280;23615;51.506;7.678;2022-12-29T01:30:36;98695.22;;;10.22;100.00
37778;BME280;23615;51.506;7.678;2022-12-29T01:33:01;98678.97;;;10.23;100.00
37778;BME280;23615;51.506;7.678;2022-12-29T01:35:27;98676.56;;;10.22;100.00
37778;BME280;23615;51.506;7.678;2022-12-29T01:37:52;98679.56;;;10.30;100.00
37778;BME280;23615;51.506;7.678;2022-12-29T01:40:18;98674.59;;;10.12;100.00
37778;BME280;23615;51.506;7.678;2022-12-29T01:42:43;98662.19;;;10.23;100.00
37778;BME280;23615;51.506;7.678;2022-12-29T01:45:13;98675.09;;;10.09;100.00
37778;BME280;23615;51.506;7.678;2022-12-29T01:47:48;98667.94;;;10.14;100.00
37778;BME280;23615;51.506;7.678;2022-12-29T01:50:24;98668.28;;;10.18;100.00
37778;BME280;23615;51.506;7.678;2022-12-29T01:52:57;98665.25;;;10.41;100.00
37778;BME280;23615;51.506;7.678;2022-12-29T01:55:26;98648.19;;;10.37;100.00
37778;BME280;23615;51.506;7.678;2022-12-29T01:57:54;98663.97;;;10.49;100.00
37778;BME280;23615;51.506;7.678;2022-12-29T02:00:21;98657.97;;;10.27;100.00
37778;BME280;23615;51.506;7.678;2022-12-29T02:02:51;98671.03;;;10.28;100.00
37778;BME280;23615;51.506;7.678;2022-12-29T02:05:39;98669.69;;;10.26;100.00
37778;BME280;23615;51.506;7.678;2022-12-29T02:08:07;98673.50;;;10.40;100.00
37778;BME280;23615;51.506;7.678;2022-12-29T02:10:34;98670.03;;;10.39;100.00
37778;BME280;23615;51.506;7.678;2022-12-29T02:13:00;98666.09;;;10.47;100.00
37778;BME280;23615;51.506;7.678;2022-12-29T02:15:34;98655.66;;;10.40;100.00
37778;BME280;23615;51.506;7.678;2022-12-29T02:18:18;98664.75;;;10.44;100.00
37778;BME280;23615;51.506;7.678;2022-12-29T02:21:12;98639.41;;;10.47;100.00
37778;BME280;23615;51.506;7.678;2022-12-29T02:29:20;98634.06;;;10.37;100.00
37778;BME280;23615;51.506;7.678;2022-12-29T02:32:29;98619.19;;;10.46;99.54
37778;BME280;23615;51.506;7.678;2022-12-29T02:38:03;98602.88;;;10.42;98.81
37778;BME280;23615;51.506;7.678;2022-12-29T02:40:47;98613.88;;;10.56;97.80
37778;BME280;23615;51.506;7.678;2022-12-29T02:43:32;98608.28;;;10.53;98.06
37778;BME280;23615;51.506;7.678;2022-12-29T02:46:11;98611.25;;;10.61;97.85
37778;BME280;23615;51.506;7.678;2022-12-29T02:48:46;98612.88;;;10.62;98.42
37778;BME280;23615;51.506;7.678;2022-12-29T02:51:21;98601.91;;;10.59;97.97
37778;BME280;23615;51.506;7.678;2022-12-29T02:53:50;98607.41;;;10.42;98.70
37778;BME280;23615;51.506;7.678;2022-12-29T02:56:35;98607.41;;;10.42;98.10
37778;BME280;23615;51.506;7.678;2022-12-29T02:59:00;98618.66;;;10.49;97.60
37778;BME280;23615;51.506;7.678;2022-12-29T03:01:44;98610.94;;;10.53;97.36
37778;BME280;23615;51.506;7.678;2022-12-29T03:04:41;98613.63;;;10.53;96.85
37778;BME280;23615;51.506;7.678;2022-12-29T03:12:44;98608.84;;;10.60;95.74
37778;BME280;23615;51.506;7.678;2022-12-29T03:16:00;98607.78;;;10.61;94.94
37778;BME280;23615;51.506;7.678;2022-12-29T03:18:39;98611.75;;;10.53;95.10
37778;BME280;23615;51.506;7.678;2022-12-29T03:21:15;98602.69;;;10.54;94.28
37778;BME280;23615;51.506;7.678;2022-12-29T03:23:45;98601.97;;;10.69;93.84
37778;BME280;23615;51.506;7.678;2022-12-29T03:26:16;98608.13;;;10.74;93.14
37778;BME280;23615;51.506;7.678;2022-12-29T03:28:51;98613.19;;;10.76;92.82
37778;BME280;23615;51.506;7.678;2022-12-29T03:31:19;98611.94;;;10.88;92.33
37778;BME280;23615;51.506;7.678;2022-12-29T03:33:46;98613.84;;;10.98;93.01
37778;BME280;23615;51.506;7.678;2022-12-29T03:36:16;98606.81;;;10.77;94.73
37778;BME280;23615;51.506;7.678;2022-12-29T03:38:50;98614.25;;;10.75;95.24
37778;BME280;23615;51.506;7.678;2022-12-29T03:41:22;98604.13;;;10.72;96.08
37778;BME280;23615;51.506;7.678;2022-12-29T03:43:49;98613.69;;;10.68;96.45
37778;BME280;23615;51.506;7.678;2022-12-29T03:46:15;98610.91;;;10.47;98.12
37778;BME280;23615;51.506;7.678;2022-12-29T03:48:40;98605.78;;;10.36;98.93
37778;BME280;23615;51.506;7.678;2022-12-29T03:51:05;98607.66;;;10.40;99.24
37778;BME280;23615;51.506;7.678;2022-12-29T03:53:30;98593.69;;;10.23;99.63
37778;BME280;23615;51.506;7.678;2022-12-29T03:55:56;98599.41;;;10.42;99.48
37778;BME280;23615;51.506;7.678;2022-12-29T03:58:21;98600.44;;;10.36;99.36
37778;BME280;23615;51.506;7.678;2022-12-29T04:00:46;98602.22;;;10.25;99.80
37778;BME280;23615;51.506;7.678;2022-12-29T04:03:12;98592.06;;;10.22;99.76
37778;BME280;23615;51.506;7.678;2022-12-29T04:05:37;98609.19;;;10.26;100.00
37778;BME280;23615;51.506;7.678;2022-12-29T04:08:02;98600.94;;;10.28;100.00
37778;BME280;23615;51.506;7.678;2022-12-29T04:10:27;98590.19;;;10.18;100.00
37778;BME280;23615;51.506;7.678;2022-12-29T04:12:53;98579.19;;;10.14;100.00
37778;BME280;23615;51.506;7.678;2022-12-29T04:15:18;98586.25;;;10.25;100.00
37778;BME280;23615;51.506;7.678;2022-12-29T04:17:43;98602.25;;;10.30;100.00
37778;BME280;23615;51.506;7.678;2022-12-29T04:20:09;98592.44;;;10.36;100.00
37778;BME280;23615;51.506;7.678;2022-12-29T04:23:02;98580.22;;;10.08;100.00
37778;BME280;23615;51.506;7.678;2022-12-29T04:25:28;98593.81;;;10.06;100.00
37778;BME280;23615;51.506;7.678;2022-12-29T04:27:53;98581.03;;;10.08;100.00
37778;BME280;23615;51.506;7.678;2022-12-29T04:30:19;98556.47;;;10.01;100.00
37778;BME280;23615;51.506;7.678;2022-12-29T04:32:44;98559.16;;;10.06;100.00
37778;BME280;23615;51.506;7.678;2022-12-29T04:35:09;98561.16;;;10.21;100.00
37778;BME280;23615;51.506;7.678;2022-12-29T04:37:35;98543.91;;;10.29;100.00
37778;BME280;23615;51.506;7.678;2022-12-29T04:40:00;98547.63;;;10.28;100.00
37778;BME280;23615;51.506;7.678;2022-12-29T04:42:25;98533.97;;;10.19;100.00
37778;BME280;23615;51.506;7.678;2022-12-29T04:44:51;98528.69;;;10.29;100.00
37778;BME280;23615;51.506;7.678;2022-12-29T04:47:16;98510.91;;;10.45;99.70
37778;BME280;23615;51.506;7.678;2022-12-29T04:49:41;98515.41;;;10.39;99.12
37778;BME280;23615;51.506;7.678;2022-12-29T04:52:06;98518.06;;;10.34;99.13
37778;BME280;23615;51.506;7.678;2022-12-29T04:54:33;98519.72;;;10.45;98.34
37778;BME280;23615;51.506;7.678;2022-12-29T04:56:58;98533.63;;;10.53;97.84
37778;BME280;23615;51.506;7.678;2022-12-29T04:59:23;98527.50;;;10.57;97.56
37778;BME280;23615;51.506;7.678;2022-12-29T05:01:49;98533.66;;;10.63;96.60
37778;BME280;23615;51.506;7.678;2022-12-29T05:04:14;98537.13;;;10.63;97.00
37778;BME280;23615;51.506;7.678;2022-12-29T05:06:39;98543.59;;;10.77;96.35
37778;BME280;23615;51.506;7.678;2022-12-29T05:09:05;98528.94;;;10.80;95.94
37778;BME280;23615;51.506;7.678;2022-12-29T05:11:30;98550.00;;;10.81;95.74
37778;BME280;23615;51.506;7.678;2022-12-29T05:13:56;98553.19;;;10.83;95.68
37778;BME280;23615;51.506;7.678;2022-12-29T05:16:21;98558.28;;;10.85;95.45
37778;BME280;23615;51.506;7.678;2022-12-29T05:18:46;98547.59;;;10.85;95.49
37778;BME280;23615;51.506;7.678;2022-12-29T05:21:11;98549.00;;;10.98;94.64
37778;BME280;23615;51.506;7.678;2022-12-29T05:23:37;98539.91;;;10.94;95.14
37778;BME280;23615;51.506;7.678;2022-12-29T05:26:02;98543.38;;;10.94;94.36
37778;BME280;23615;51.506;7.678;2022-12-29T05:28:27;98544.13;;;10.79;94.38
37778;BME280;23615;51.506;7.678;2022-12-29T05:30:53;98541.53;;;11.00;93.60
37778;BME280;23615;51.506;7.678;2022-12-29T05:33:19;98551.41;;;11.04;92.98
37778;BME280;23615;51.506;7.678;2022-12-29T05:35:44;98568.56;;;11.18;92.39
37778;BME280;23615;51.506;7.678;2022-12-29T05:38:10;98560.50;;;11.13;92.08
37778;BME280;23615;51.506;7.678;2022-12-29T05:40:35;98553.59;;;11.17;91.52
37778;BME280;23615;51.506;7.678;2022-12-29T05:43:01;98546.38;;;11.23;90.89
37778;BME280;23615;51.506;7.678;2022-12-29T05:45:26;98560.53;;;11.23;90.25
37778;BME280;23615;51.506;7.678;2022-12-29T05:47:51;98562.16;;;11.30;89.81
37778;BME280;23615;51.506;7.678;2022-12-29T05:50:16;98565.91;;;11.34;89.58
37778;BME280;23615;51.506;7.678;2022-12-29T05:52:42;98570.72;;;11.27;89.24
37778;BME280;23615;51.506;7.678;2022-12-29T05:55:08;98574.69;;;11.29;89.57
37778;BME280;23615;51.506;7.678;2022-12-29T05:57:33;98588.03;;;11.24;89.24
37778;BME280;23615;51.506;7.678;2022-12-29T05:59:58;98588.63;;;11.36;88.77
37778;BME280;23615;51.506;7.678;2022-12-29T06:02:24;98599.63;;;11.55;87.96
37778;BME280;23615;51.506;7.678;2022-12-29T06:04:49;98597.47;;;11.47;88.33
37778;BME280;23615;51.506;7.678;2022-12-29T06:07:14;98589.97;;;11.44;87.81
37778;BME280;23615;51.506;7.678;2022-12-29T06:09:40;98588.91;;;11.50;88.37
37778;BME280;23615;51.506;7.678;2022-12-29T06:12:05;98578.75;;;11.37;88.35
37778;BME280;23615;51.506;7.678;2022-12-29T06:14:30;98585.69;;;11.48;87.96
37778;BME280;23615;51.506;7.678;2022-12-29T06:16:56;98587.00;;;11.40;87.05
37778;BME280;23615;51.506;7.678;2022-12-29T06:19:21;98582.75;;;11.44;86.44
37778;BME280;23615;51.506;7.678;2022-12-29T06:21:46;98593.69;;;11.48;86.97
37778;BME280;23615;51.506;7.678;2022-12-29T06:24:11;98591.03;;;11.43;87.38
37778;BME280;23615;51.506;7.678;2022-12-29T06:26:37;98595.50;;;11.17;88.22
37778;BME280;23615;51.506;7.678;2022-12-29T06:29:02;98584.03;;;11.21;88.77
37778;BME280;23615;51.506;7.678;2022-12-29T06:31:28;98590.16;;;11.22;88.39
37778;BME280;23615;51.506;7.678;2022-12-29T06:33:53;98603.28;;;11.29;88.08
37778;BME280;23615;51.506;7.678;2022-12-29T06:36:18;98592.88;;;11.27;88.43
37778;BME280;23615;51.506;7.678;2022-12-29T06:38:44;98601.16;;;11.36;87.01
37778;BME280;23615;51.506;7.678;2022-12-29T06:41:09;98595.78;;;11.31;86.89
37778;BME280;23615;51.506;7.678;2022-12-29T06:43:34;98608.38;;;11.35;86.52
37778;BME280;23615;51.506;7.678;2022-12-29T06:46:03;98605.66;;;11.30;86.90
37778;BME280;23615;51.506;7.678;2022-12-29T06:48:28;98622.56;;;11.46;86.32
37778;BME280;23615;51.506;7.678;2022-12-29T06:50:54;98618.50;;;11.38;85.86
37778;BME280;23615;51.506;7.678;2022-12-29T06:53:19;98622.00;;;11.44;85.65
37778;BME280;23615;51.506;7.678;2022-12-29T06:55:44;98632.91;;;11.32;86.15
37778;BME280;23615;51.506;7.678;2022-12-29T06:58:09;98639.34;;;11.36;85.51
37778;BME280;23615;51.506;7.678;2022-12-29T07:00:35;98641.53;;;11.54;84.91
37778;BME280;23615;51.506;7.678;2022-12-29T07:03:00;98629.50;;;11.47;84.96
37778;BME280;23615;51.506;7.678;2022-12-29T07:05:26;98646.81;;;11.39;85.25
37778;BME280;23615;51.506;7.678;2022-12-29T07:07:53;98671.41;;;11.41;85.09
37778;BME280;23615;51.506;7.678;2022-12-29T07:10:18;98666.88;;;11.37;84.55
37778;BME280;23615;51.506;7.678;2022-12-29T07:12:44;98665.81;;;11.43;84.28
37778;BME280;23615;51.506;7.678;2022-12-29T07:15:09;98658.88;;;11.57;83.18
37778;BME280;23615;51.506;7.678;2022-12-29T07:17:37;98669.53;;;11.42;83.71
37778;BME280;23615;51.506;7.678;2022-12-29T07:20:03;98658.09;;;11.46;83.32
37778;BME280;23615;51.506;7.678;2022-12-29T07:22:29;98650.88;;;11.57;83.32
37778;BME280;23615;51.506;7.678;2022-12-29T07:24:54;98664.22;;;11.47;84.38
37778;BME280;23615;51.506;7.678;2022-12-29T07:27:19;98657.00;;;11.42;85.79
37778;BME280;23615;51.506;7.678;2022-12-29T07:29:44;98676.44;;;11.28;87.21
37778;BME280;23615;51.506;7.678;2022-12-29T07:32:10;98678.19;;;11.07;88.32
37778;BME280;23615;51.506;7.678;2022-12-29T07:34:35;98672.38;;;11.15;87.10
37778;BME280;23615;51.506;7.678;2022-12-29T07:37:00;98684.63;;;11.11;85.80
37778;BME280;23615;51.506;7.678;2022-12-29T07:39:26;98684.09;;;11.14;85.23
37778;BME280;23615;51.506;7.678;2022-12-29T07:41:51;98674.72;;;11.06;86.00
37778;BME280;23615;51.506;7.678;2022-12-29T07:44:16;98676.91;;;11.14;85.40
37778;BME280;23615;51.506;7.678;2022-12-29T07:46:41;98696.69;;;11.18;85.68
37778;BME280;23615;51.506;7.678;2022-12-29T07:49:07;98709.19;;;11.13;85.41
37778;BME280;23615;51.506;7.678;2022-12-29T07:51:33;98701.66;;;11.00;85.94
37778;BME280;23615;51.506;7.678;2022-12-29T07:53:58;98697.69;;;11.07;85.77
37778;BME280;23615;51.506;7.678;2022-12-29T07:56:25;98706.75;;;11.01;86.11
37778;BME280;23615;51.506;7.678;2022-12-29T07:58:51;98716.38;;;11.07;85.13
37778;BME280;23615;51.506;7.678;2022-12-29T08:01:16;98725.13;;;10.98;86.08
37778;BME280;23615;51.506;7.678;2022-12-29T08:03:41;98717.13;;;10.98;86.00
37778;BME280;23615;51.506;7.678;2022-12-29T08:06:09;98731.03;;;11.05;85.73
37778;BME280;23615;51.506;7.678;2022-12-29T08:08:35;98727.38;;;11.16;85.16
37778;BME280;23615;51.506;7.678;2022-12-29T08:11:00;98738.66;;;10.86;86.25
37778;BME280;23615;51.506;7.678;2022-12-29T08:13:25;98747.84;;;11.00;86.60
37778;BME280;23615;51.506;7.678;2022-12-29T08:15:50;98745.78;;;10.75;87.18
37778;BME280;23615;51.506;7.678;2022-12-29T08:18:16;98730.56;;;10.71;87.47
37778;BME280;23615;51.506;7.678;2022-12-29T08:20:41;98747.22;;;10.56;88.46
37778;BME280;23615;51.506;7.678;2022-12-29T08:23:06;98750.19;;;10.92;87.34
37778;BME280;23615;51.506;7.678;2022-12-29T08:25:31;98755.91;;;10.73;87.34
37778;BME280;23615;51.506;7.678;2022-12-29T08:27:57;98756.16;;;10.72;86.96
37778;BME280;23615;51.506;7.678;2022-12-29T08:30:22;98756.59;;;10.59;87.63
37778;BME280;23615;51.506;7.678;2022-12-29T08:32:47;98747.94;;;10.78;86.55
37778;BME280;23615;51.506;7.678;2022-12-29T08:35:12;98759.31;;;11.01;83.65
37778;BME280;23615;51.506;7.678;2022-12-29T08:37:38;98762.75;;;10.96;83.01
37778;BME280;23615;51.506;7.678;2022-12-29T08:40:04;98749.16;;;11.03;82.02
37778;BME280;23615;51.506;7.678;2022-12-29T08:42:30;98753.91;;;10.91;82.41
37778;BME280;23615;51.506;7.678;2022-12-29T08:44:57;98753.69;;;11.02;81.47
37778;BME280;23615;51.506;7.678;2022-12-29T08:47:22;98751.75;;;10.93;82.47
37778;BME280;23615;51.506;7.678;2022-12-29T08:49:47;98742.97;;;10.92;82.89
37778;BME280;23615;51.506;7.678;2022-12-29T08:52:13;98746.44;;;10.93;81.75
37778;BME280;23615;51.506;7.678;2022-12-29T08:54:38;98743.81;;;11.03;80.65
37778;BME280;23615;51.506;7.678;2022-12-29T08:57:03;98758.56;;;11.10;80.59
37778;BME280;23615;51.506;7.678;2022-12-29T08:59:28;98747.38;;;11.13;80.50
37778;BME280;23615;51.506;7.678;2022-12-29T09:01:54;98743.56;;;11.04;81.16
37778;BME280;23615;51.506;7.678;2022-12-29T09:04:20;98738.22;;;10.99;81.25
37778;BME280;23615;51.506;7.678;2022-12-29T09:06:45;98766.84;;;11.09;81.30
37778;BME280;23615;51.506;7.678;2022-12-29T09:09:11;98746.25;;;11.04;81.77
37778;BME280;23615;51.506;7.678;2022-12-29T09:11:36;98753.56;;;11.19;81.34
37778;BME280;23615;51.506;7.678;2022-12-29T09:14:02;98747.13;;;11.15;81.14
37778;BME280;23615;51.506;7.678;2022-12-29T09:16:27;98761.78;;;11.12;82.13
37778;BME280;23615;51.506;7.678;2022-12-29T09:18:53;98742.09;;;10.81;84.54
37778;BME280;23615;51.506;7.678;2022-12-29T09:21:18;98778.25;;;10.67;87.18
37778;BME280;23615;51.506;7.678;2022-12-29T09:23:43;98771.19;;;10.51;87.76
37778;BME280;23615;51.506;7.678;2022-12-29T09:26:09;98790.72;;;10.30;88.89
37778;BME280;23615;51.506;7.678;2022-12-29T09:28:35;98785.09;;;10.26;88.60
37778;BME280;23615;51.506;7.678;2022-12-29T09:31:01;98802.81;;;10.16;89.71
37778;BME280;23615;51.506;7.678;2022-12-29T09:33:27;98799.69;;;10.19;89.84
37778;BME280;23615;51.506;7.678;2022-12-29T09:35:57;98799.69;;;9.97;90.91
37778;BME280;23615;51.506;7.678;2022-12-29T09:38:24;98809.97;;;10.10;91.02
37778;BME280;23615;51.506;7.678;2022-12-29T09:46:27;98804.06;;;10.08;90.15
37778;BME280;23615;51.506;7.678;2022-12-29T09:51:55;98815.34;;;10.15;89.68
37778;BME280;23615;51.506;7.678;2022-12-29T09:54:46;98815.97;;;10.22;89.08
37778;BME280;23615;51.506;7.678;2022-12-29T09:57:34;98824.22;;;10.21;88.88
37778;BME280;23615;51.506;7.678;2022-12-29T10:00:12;98813.13;;;10.29;88.84
37778;BME280;23615;51.506;7.678;2022-12-29T10:02:50;98801.91;;;10.27;88.78
37778;BME280;23615;51.506;7.678;2022-12-29T10:05:27;98798.53;;;10.36;88.27
37778;BME280;23615;51.506;7.678;2022-12-29T10:13:26;98803.41;;;10.18;90.29
37778;BME280;23615;51.506;7.678;2022-12-29T10:18:37;98798.72;;;10.30;89.23
37778;BME280;23615;51.506;7.678;2022-12-29T10:21:45;98810.34;;;10.19;90.45
37778;BME280;23615;51.506;7.678;2022-12-29T10:24:16;98806.00;;;10.39;89.26
37778;BME280;23615;51.506;7.678;2022-12-29T10:26:43;98803.44;;;10.23;88.45
37778;BME280;23615;51.506;7.678;2022-12-29T10:29:28;98814.41;;;10.53;86.62
37778;BME280;23615;51.506;7.678;2022-12-29T10:32:03;98793.78;;;10.43;85.63
37778;BME280;23615;51.506;7.678;2022-12-29T10:34:44;98796.81;;;10.52;85.13
37778;BME280;23615;51.506;7.678;2022-12-29T10:37:29;98783.22;;;10.54;84.97
37778;BME280;23615;51.506;7.678;2022-12-29T10:39:56;98778.69;;;10.54;83.49
37778;BME280;23615;51.506;7.678;2022-12-29T10:42:27;98785.50;;;10.72;82.32
37778;BME280;23615;51.506;7.678;2022-12-29T10:44:54;98795.41;;;10.76;81.36
37778;BME280;23615;51.506;7.678;2022-12-29T10:47:25;98791.44;;;10.79;81.34
37778;BME280;23615;51.506;7.678;2022-12-29T10:49:51;98790.13;;;10.81;81.68
37778;BME280;23615;51.506;7.678;2022-12-29T10:52:19;98794.91;;;10.79;81.09
37778;BME280;23615;51.506;7.678;2022-12-29T10:54:59;98796.06;;;10.94;80.42
37778;BME280;23615;51.506;7.678;2022-12-29T10:57:39;98764.25;;;10.82;79.77
37778;BME280;23615;51.506;7.678;2022-12-29T11:00:13;98789.94;;;10.93;78.78
37778;BME280;23615;51.506;7.678;2022-12-29T11:03:22;98793.13;;;10.90;79.05
37778;BME280;23615;51.506;7.678;2022-12-29T11:05:53;98799.75;;;10.82;79.32
37778;BME280;23615;51.506;7.678;2022-12-29T11:08:24;98800.59;;;10.93;78.76
37778;BME280;23615;51.506;7.678;2022-12-29T11:11:21;98800.91;;;10.97;78.06
37778;BME280;23615;51.506;7.678;2022-12-29T11:13:56;98801.13;;;10.90;77.94
37778;BME280;23615;51.506;7.678;2022-12-29T11:16:30;98807.53;;;10.89;79.12
37778;BME280;23615;51.506;7.678;2022-12-29T11:18:57;98805.13;;;10.93;78.99
37778;BME280;23615;51.506;7.678;2022-12-29T11:21:32;98811.75;;;10.85;78.34
37778;BME280;23615;51.506;7.678;2022-12-29T11:24:18;98800.03;;;10.86;78.30
37778;BME280;23615;51.506;7.678;2022-12-29T11:26:44;98809.97;;;10.96;78.42
37778;BME280;23615;51.506;7.678;2022-12-29T11:29:17;98818.84;;;11.01;77.91
37778;BME280;23615;51.506;7.678;2022-12-29T11:31:49;98813.09;;;10.87;78.05
37778;BME280;23615;51.506;7.678;2022-12-29T11:34:23;98820.38;;;10.92;77.85
37778;BME280;23615;51.506;7.678;2022-12-29T11:36:52;98800.34;;;10.95;78.26
37778;BME280;23615;51.506;7.678;2022-12-29T11:39:29;98827.03;;;10.95;78.27
37778;BME280;23615;51.506;7.678;2022-12-29T11:41:55;98828.09;;;10.94;78.90
37778;BME280;23615;51.506;7.678;2022-12-29T11:44:21;98842.28;;;10.99;78.64
37778;BME280;23615;51.506;7.678;2022-12-29T11:46:50;98839.06;;;10.97;77.75
37778;BME280;23615;51.506;7.678;2022-12-29T11:49:24;98832.84;;;10.86;78.64
37778;BME280;23615;51.506;7.678;2022-12-29T11:51:52;98848.09;;;10.91;78.58
37778;BME280;23615;51.506;7.678;2022-12-29T11:54:28;98838.75;;;10.94;78.35
37778;BME280;23615;51.506;7.678;2022-12-29T11:56:55;98850.16;;;10.84;78.52
37778;BME280;23615;51.506;7.678;2022-12-29T12:01:56;98856.13;;;10.91;78.02
37778;BME280;23615;51.506;7.678;2022-12-29T12:04:29;98851.25;;;10.83;78.20
37778;BME280;23615;51.506;7.678;2022-12-29T12:09:34;98861.16;;;10.93;78.29
37778;BME280;23615;51.506;7.678;2022-12-29T12:12:01;98857.41;;;10.88;78.35
37778;BME280;23615;51.506;7.678;2022-12-29T12:14:34;98849.50;;;10.99;78.24
37778;BME280;23615;51.506;7.678;2022-12-29T12:17:09;98856.38;;;10.95;78.65
37778;BME280;23615;51.506;7.678;2022-12-29T12:19:53;98868.66;;;10.91;78.56
37778;BME280;23615;51.506;7.678;2022-12-29T12:22:28;98864.16;;;10.96;77.87
37778;BME280;23615;51.506;7.678;2022-12-29T12:25:03;98867.88;;;10.95;77.26
37778;BME280;23615;51.506;7.678;2022-12-29T12:27:41;98868.59;;;10.85;77.67
37778;BME280;23615;51.506;7.678;2022-12-29T12:32:56;98880.38;;;10.90;78.16
37778;BME280;23615;51.506;7.678;2022-12-29T12:35:43;98883.28;;;10.88;77.99
37778;BME280;23615;51.506;7.678;2022-12-29T12:43:37;98909.63;;;10.79;77.55
37778;BME280;23615;51.506;7.678;2022-12-29T12:51:46;98895.06;;;10.65;77.72
37778;BME280;23615;51.506;7.678;2022-12-29T12:54:46;98901.72;;;10.63;78.56
37778;BME280;23615;51.506;7.678;2022-12-29T13:02:40;98908.72;;;10.69;77.40
37778;BME280;23615;51.506;7.678;2022-12-29T13:08:05;98940.69;;;10.64;78.11
37778;BME280;23615;51.506;7.678;2022-12-29T13:13:19;98919.59;;;10.62;78.88
37778;BME280;23615;51.506;7.678;2022-12-29T13:16:01;98912.22;;;10.74;78.28
37778;BME280;23615;51.506;7.678;2022-12-29T13:21:46;98916.72;;;10.69;78.30
37778;BME280;23615;51.506;7.678;2022-12-29T13:27:30;98927.88;;;10.66;78.33
37778;BME280;23615;51.506;7.678;2022-12-29T13:30:00;98923.81;;;10.58;78.30
37778;BME280;23615;51.506;7.678;2022-12-29T13:37:57;98925.22;;;10.66;78.91
37778;BME280;23615;51.506;7.678;2022-12-29T13:40:26;98929.44;;;10.62;79.20
37778;BME280;23615;51.506;7.678;2022-12-29T13:45:43;98933.31;;;10.49;79.42
37778;BME280;23615;51.506;7.678;2022-12-29T13:48:15;98945.03;;;10.48;79.14
37778;BME280;23615;51.506;7.678;2022-12-29T13:50:43;98951.34;;;10.64;79.42
37778;BME280;23615;51.506;7.678;2022-12-29T13:55:47;98953.22;;;10.63;79.42
37778;BME280;23615;51.506;7.678;2022-12-29T13:58:34;98942.66;;;10.52;79.02
37778;BME280;23615;51.506;7.678;2022-12-29T14:01:12;98953.13;;;10.58;79.45
37778;BME280;23615;51.506;7.678;2022-12-29T14:03:52;98956.00;;;10.52;79.29
37778;BME280;23615;51.506;7.678;2022-12-29T14:06:26;98958.88;;;10.45;79.18
37778;BME280;23615;51.506;7.678;2022-12-29T14:08:54;98958.06;;;10.44;79.99
37778;BME280;23615;51.506;7.678;2022-12-29T14:11:23;98960.53;;;10.51;79.55
37778;BME280;23615;51.506;7.678;2022-12-29T14:13:50;98973.75;;;10.41;79.90
37778;BME280;23615;51.506;7.678;2022-12-29T14:16:32;98977.72;;;10.60;79.42
37778;BME280;23615;51.506;7.678;2022-12-29T14:19:10;98977.09;;;10.53;79.77
37778;BME280;23615;51.506;7.678;2022-12-29T14:21:37;98983.41;;;10.47;79.58
37778;BME280;23615;51.506;7.678;2022-12-29T14:26:57;98982.63;;;10.46;79.41
37778;BME280;23615;51.506;7.678;2022-12-29T14:31:48;98978.06;;;10.47;79.63
37778;BME280;23615;51.506;7.678;2022-12-29T14:36:52;98989.84;;;10.29;79.99
37778;BME280;23615;51.506;7.678;2022-12-29T14:39:47;98988.31;;;10.55;79.28